createdAt,value
2022-07-27T00:00:10.066Z,2.10
2022-07-27T00:05:11.581Z,2.03
2022-07-27T00:10:13.425Z,1.67
2022-07-27T00:15:14.897Z,2.15
2022-07-27T00:20:16.490Z,2.17
2022-07-27T00:25:17.933Z,2.22
2022-07-27T00:30:19.706Z,1.90
2022-07-27T00:35:21.186Z,2.20
2022-07-27T00:40:22.696Z,2.22
2022-07-27T00:45:24.258Z,2.30
2022-07-27T00:50:25.817Z,2.15
2022-07-27T00:55:27.672Z,2.10
2022-07-27T01:00:29.205Z,2.42
2022-07-27T01:05:36.405Z,3.00
2022-07-27T01:10:40.328Z,3.13
2022-07-27T01:15:43.423Z,3.47
2022-07-27T01:20:45.001Z,3.38
2022-07-27T01:25:46.566Z,3.00
2022-07-27T01:30:48.143Z,3.00
2022-07-27T01:35:49.651Z,3.10
2022-07-27T01:40:53.319Z,3.40
2022-07-27T01:45:56.086Z,3.00
2022-07-27T01:50:57.885Z,3.63
2022-07-27T01:55:59.427Z,3.88
2022-07-27T02:01:00.857Z,4.20
2022-07-27T02:06:03.896Z,4.45
2022-07-27T02:11:23.958Z,3.90
2022-07-27T02:16:25.472Z,3.88
2022-07-27T02:21:27.813Z,4.30
2022-07-27T02:26:29.331Z,3.90
2022-07-27T02:31:32.873Z,3.45
2022-07-27T02:36:34.726Z,3.28
2022-07-27T02:41:36.170Z,3.35
2022-07-27T02:46:37.693Z,3.20
2022-07-27T02:51:39.514Z,3.22
2022-07-27T02:56:42.545Z,3.17
2022-07-27T03:01:45.206Z,2.90
2022-07-27T03:06:46.873Z,3.15
2022-07-27T03:11:48.372Z,3.00
2022-07-27T03:16:49.832Z,3.20
2022-07-27T03:21:51.311Z,3.53
2022-07-27T03:26:52.848Z,3.10
2022-07-27T03:31:54.335Z,4.00
2022-07-27T03:36:55.832Z,3.38
2022-07-27T03:41:57.300Z,3.90
2022-07-27T03:46:58.966Z,3.60
2022-07-27T03:52:00.835Z,3.85
2022-07-27T03:57:02.368Z,4.30
2022-07-27T04:02:04.801Z,4.25
2022-07-27T04:07:06.300Z,4.10
2022-07-27T04:12:08.210Z,4.60
2022-07-27T04:17:09.769Z,4.60
2022-07-27T04:22:11.288Z,4.70
2022-07-27T04:27:13.848Z,4.18
2022-07-27T04:32:15.342Z,4.13
2022-07-27T04:37:16.835Z,4.30
2022-07-27T04:42:18.358Z,4.45
2022-07-27T04:47:19.813Z,4.05
2022-07-27T04:52:26.795Z,4.20
2022-07-27T04:57:31.429Z,4.57
2022-07-27T05:02:33.013Z,3.65
2022-07-27T05:07:34.640Z,3.60
2022-07-27T05:12:36.069Z,4.03
2022-07-27T05:17:37.558Z,4.75
2022-07-27T05:22:39.957Z,4.22
2022-07-27T05:27:54.038Z,4.68
2022-07-27T05:32:56.243Z,4.07
2022-07-27T05:37:57.676Z,4.78
2022-07-27T05:42:59.588Z,4.47
2022-07-27T05:48:01.149Z,4.50
2022-07-27T05:53:02.653Z,3.83
2022-07-27T05:58:04.943Z,3.70
2022-07-27T06:03:06.431Z,3.25
2022-07-27T06:08:10.936Z,3.25
2022-07-27T06:13:12.509Z,3.00
2022-07-27T06:18:18.209Z,3.13
2022-07-27T06:23:19.685Z,3.15
2022-07-27T06:28:21.956Z,3.30
2022-07-27T06:33:28.924Z,2.90
2022-07-27T06:38:30.720Z,3.30
2022-07-27T06:43:32.414Z,3.35
2022-07-27T06:48:34.198Z,3.22
2022-07-27T06:53:37.012Z,3.13
2022-07-27T06:58:39.029Z,3.38
2022-07-27T07:03:40.606Z,3.17
2022-07-27T07:08:42.215Z,2.88
2022-07-27T07:13:45.157Z,2.17
2022-07-27T07:18:52.027Z,2.40
2022-07-27T07:23:54.076Z,2.30
2022-07-27T07:28:55.524Z,1.90
2022-07-27T07:33:58.638Z,2.30
2022-07-27T07:39:00.873Z,2.30
2022-07-27T07:44:02.366Z,2.67
2022-07-27T07:49:05.248Z,2.65
2022-07-27T07:54:06.751Z,2.72
2022-07-27T07:59:08.343Z,2.47
2022-07-27T08:04:10.066Z,2.15
2022-07-27T08:09:13.302Z,2.10
2022-07-27T08:14:15.060Z,2.15
2022-07-27T08:19:16.506Z,2.20
2022-07-27T08:24:17.971Z,2.50
2022-07-27T08:29:23.106Z,2.63
2022-07-27T08:34:24.848Z,2.50
2022-07-27T08:40:19.854Z,2.05
2022-07-27T08:44:47.853Z,1.77
2022-07-27T08:49:49.848Z,1.88
2022-07-27T08:54:51.571Z,2.10
2022-07-27T08:59:56.757Z,2.50
2022-07-27T09:04:58.662Z,2.08
2022-07-27T09:10:00.166Z,1.80
2022-07-27T09:15:13.374Z,1.55
2022-07-27T09:20:18.573Z,1.40
2022-07-27T09:25:38.711Z,1.85
2022-07-27T09:30:45.346Z,1.70
2022-07-27T09:35:58.086Z,1.88
2022-07-27T09:41:06.142Z,1.92
2022-07-27T09:46:08.063Z,2.67
2022-07-27T09:51:55.606Z,2.78
2022-07-27T09:56:33.305Z,3.40
2022-07-27T10:01:42.233Z,2.95
2022-07-27T10:07:02.105Z,3.42
2022-07-27T10:12:04.993Z,3.30
2022-07-27T10:17:07.596Z,3.40
2022-07-27T10:22:09.104Z,2.97
2022-07-27T10:27:30.098Z,2.92
2022-07-27T10:32:33.325Z,2.83
2022-07-27T10:37:34.985Z,3.10
2022-07-27T10:42:36.581Z,2.85
2022-07-27T10:47:42.714Z,2.58
2022-07-27T10:52:48.426Z,2.58
2022-07-27T10:57:49.950Z,2.35
2022-07-27T11:02:51.434Z,1.85
2022-07-27T11:08:34.663Z,1.48
2022-07-27T11:13:14.533Z,1.88
2022-07-27T11:18:16.214Z,1.80
2022-07-27T11:28:41.718Z,1.60
2022-07-27T11:33:56.144Z,1.70
2022-07-27T11:38:57.597Z,1.63
2022-07-27T11:44:02.249Z,1.60
2022-07-27T11:49:08.743Z,1.88
2022-07-27T11:54:12.301Z,1.70
2022-07-27T11:59:17.246Z,1.50
2022-07-27T12:04:38.987Z,2.17
2022-07-27T12:09:45.734Z,1.83
2022-07-27T12:14:56.543Z,1.63
2022-07-27T12:20:04.129Z,1.67
2022-07-27T12:25:29.692Z,1.60
2022-07-27T12:30:46.187Z,1.60
2022-07-27T12:35:47.762Z,1.55
2022-07-27T12:41:00.194Z,1.30
2022-07-27T12:46:13.792Z,1.88
2022-07-27T12:51:23.661Z,1.40
2022-07-27T12:56:27.742Z,1.38
2022-07-27T13:01:30.195Z,1.40
2022-07-27T13:06:31.709Z,1.40
2022-07-27T13:11:33.196Z,1.33
2022-07-27T13:16:34.757Z,1.20
2022-07-27T13:21:36.380Z,1.33
2022-07-27T13:26:38.426Z,1.02
2022-07-27T13:31:47.004Z,1.20
2022-07-27T13:36:51.546Z,1.15
2022-07-27T13:41:55.068Z,1.10
2022-07-27T13:46:56.652Z,1.20
2022-07-27T13:51:58.137Z,1.15
2022-07-27T13:56:59.572Z,1.63
2022-07-27T14:02:01.297Z,1.20
2022-07-27T14:07:02.959Z,1.20
2022-07-27T14:12:04.951Z,1.38
2022-07-27T14:17:06.964Z,1.33
2022-07-27T14:22:10.695Z,1.33
2022-07-27T14:27:12.177Z,1.58
2022-07-27T14:32:13.750Z,1.75
2022-07-27T14:37:15.650Z,1.35
2022-07-27T14:42:21.943Z,1.60
2022-07-27T14:47:23.504Z,1.55
2022-07-27T14:52:25.040Z,1.38
2022-07-27T14:57:27.513Z,1.52
2022-07-27T15:02:29.095Z,1.80
2022-07-27T15:07:30.722Z,1.40
2022-07-27T15:12:37.539Z,1.50
2022-07-27T15:17:39.422Z,1.50
2022-07-27T15:22:40.908Z,1.50
2022-07-27T15:27:42.665Z,1.17
2022-07-27T15:32:44.115Z,1.42
2022-07-27T15:37:54.198Z,1.20
2022-07-27T15:42:56.474Z,1.30
2022-07-27T15:47:57.967Z,1.60
2022-07-27T15:52:59.406Z,1.38
2022-07-27T15:58:00.904Z,1.60
2022-07-27T16:03:02.621Z,1.60
2022-07-27T16:08:04.453Z,1.48
2022-07-27T16:13:08.866Z,1.55
2022-07-27T16:18:10.830Z,1.50
2022-07-27T16:23:18.842Z,1.73
2022-07-27T16:28:24.943Z,1.95
2022-07-27T16:33:26.459Z,1.50
2022-07-27T16:38:28.320Z,2.13
2022-07-27T16:43:37.393Z,1.70
2022-07-27T16:48:43.699Z,1.70
2022-07-27T16:53:48.041Z,2.30
2022-07-27T16:58:50.019Z,1.80
2022-07-27T17:03:51.519Z,1.65
2022-07-27T17:08:53.796Z,1.95
2022-07-27T17:13:58.896Z,1.48
2022-07-27T17:19:01.345Z,1.95
2022-07-27T17:24:02.948Z,2.13
2022-07-27T17:29:05.373Z,1.42
2022-07-27T17:34:06.896Z,1.48
2022-07-27T17:39:09.570Z,1.55
2022-07-27T17:44:13.293Z,1.60
2022-07-27T17:49:15.054Z,1.52
2022-07-27T17:54:16.873Z,1.73
2022-07-27T17:59:36.990Z,1.48
2022-07-27T18:04:39.891Z,1.58
2022-07-27T18:09:41.498Z,1.38
2022-07-27T18:15:02.900Z,1.40
2022-07-27T18:20:07.413Z,1.55
2022-07-27T18:25:09.582Z,1.60
2022-07-27T18:30:12.311Z,1.50
2022-07-27T18:35:13.847Z,1.52
2022-07-27T18:40:15.397Z,1.42
2022-07-27T18:45:16.883Z,1.85
2022-07-27T18:50:18.514Z,1.50
2022-07-27T18:55:22.683Z,1.70
2022-07-27T19:00:25.724Z,1.50
2022-07-27T19:05:32.490Z,1.70
2022-07-27T19:10:42.982Z,2.08
2022-07-27T19:15:45.333Z,1.55
2022-07-27T19:20:47.003Z,3.35
2022-07-27T19:25:48.563Z,1.90
2022-07-27T19:30:50.090Z,2.08
2022-07-27T19:35:52.613Z,2.00
2022-07-27T19:40:55.006Z,2.10
2022-07-27T19:45:56.521Z,2.00
2022-07-27T19:51:03.275Z,2.30
2022-07-27T19:56:07.988Z,2.20
2022-07-27T20:01:10.360Z,2.58
2022-07-27T20:06:14.155Z,2.55
2022-07-27T20:11:15.771Z,2.25
2022-07-27T20:16:17.954Z,2.33
2022-07-27T20:21:22.974Z,3.00
2022-07-27T20:26:25.169Z,2.25
2022-07-27T20:31:28.255Z,2.60
2022-07-27T20:36:29.763Z,2.60
2022-07-27T20:41:31.275Z,2.20
2022-07-27T20:46:32.737Z,2.50
2022-07-27T20:51:35.726Z,2.35
2022-07-27T20:56:37.636Z,3.20
2022-07-27T21:01:40.045Z,2.70
2022-07-27T21:06:41.607Z,2.90
2022-07-27T21:11:43.212Z,2.78
2022-07-27T21:16:44.687Z,2.72
2022-07-27T21:21:46.465Z,2.88
2022-07-27T21:26:50.528Z,4.60
2022-07-27T21:31:52.091Z,4.50
2022-07-27T21:36:53.548Z,4.22
2022-07-27T21:42:01.457Z,4.60
2022-07-27T21:47:09.940Z,4.53
2022-07-27T21:52:14.752Z,4.00
2022-07-27T21:57:16.517Z,3.63
2022-07-27T22:02:17.957Z,4.18
2022-07-27T22:07:19.704Z,4.15
2022-07-27T22:12:21.270Z,3.88
2022-07-27T22:17:22.729Z,3.40
2022-07-27T22:22:24.236Z,4.30
2022-07-27T22:27:26.040Z,3.47
2022-07-27T22:32:27.560Z,3.35
2022-07-27T22:37:29.006Z,3.75
2022-07-27T22:42:30.485Z,3.08
2022-07-27T22:47:32.452Z,3.25
2022-07-27T22:52:34.575Z,3.38
2022-07-27T22:57:36.113Z,3.03
2022-07-27T23:02:37.596Z,3.38
2022-07-27T23:07:39.071Z,3.45
2022-07-27T23:12:40.763Z,2.97
2022-07-27T23:17:42.245Z,3.13
2022-07-27T23:22:44.473Z,3.10
2022-07-27T23:27:52.081Z,3.10
2022-07-27T23:32:54.587Z,2.95
2022-07-27T23:37:56.146Z,2.60
2022-07-27T23:42:57.618Z,3.10
2022-07-27T23:47:59.056Z,2.38
2022-07-27T23:53:00.507Z,2.17
2022-07-27T23:58:01.943Z,2.38
